createdAt,value
2018-06-23T00:00:13.405Z,23.31
2018-06-23T00:02:39.716Z,23.35
2018-06-23T00:05:06.056Z,23.31
2018-06-23T00:07:32.468Z,23.29
2018-06-23T00:09:58.796Z,23.27
2018-06-23T00:12:25.153Z,23.29
2018-06-23T00:14:51.541Z,23.28
2018-06-23T00:17:17.876Z,23.29
2018-06-23T00:19:44.204Z,23.26
2018-06-23T00:22:10.539Z,23.23
2018-06-23T00:24:36.992Z,23.21
2018-06-23T00:27:03.372Z,23.22
2018-06-23T00:29:29.691Z,23.21
2018-06-23T00:31:56.060Z,23.20
2018-06-23T00:34:22.410Z,23.17
2018-06-23T00:36:48.727Z,23.18
2018-06-23T00:39:15.044Z,23.15
2018-06-23T00:41:41.357Z,23.13
2018-06-23T00:44:07.680Z,23.13
2018-06-23T00:46:34.077Z,23.13
2018-06-23T00:49:00.409Z,23.12
2018-06-23T00:51:26.756Z,23.12
2018-06-23T00:53:53.115Z,23.14
2018-06-23T00:56:19.438Z,23.09
2018-06-23T00:58:45.795Z,23.10
2018-06-23T01:01:12.172Z,23.12
2018-06-23T01:03:38.495Z,23.08
2018-06-23T01:06:04.830Z,23.07
2018-06-23T01:08:31.146Z,23.05
2018-06-23T01:10:57.757Z,23.05
2018-06-23T01:13:24.061Z,23.05
2018-06-23T01:15:50.397Z,23.00
2018-06-23T01:18:16.723Z,23.03
2018-06-23T01:20:43.120Z,23.01
2018-06-23T01:23:09.457Z,23.01
2018-06-23T01:25:35.841Z,23.00
2018-06-23T01:28:02.195Z,22.98
2018-06-23T01:30:28.503Z,22.99
2018-06-23T01:32:54.820Z,22.95
2018-06-23T01:35:21.160Z,22.98
2018-06-23T01:37:47.585Z,22.94
2018-06-23T01:40:13.949Z,22.97
2018-06-23T01:42:40.291Z,22.93
2018-06-23T01:45:06.628Z,22.93
2018-06-23T01:47:33.994Z,22.90
2018-06-23T01:50:00.368Z,22.91
2018-06-23T01:52:26.687Z,22.88
2018-06-23T01:54:53.112Z,22.90
2018-06-23T01:57:19.439Z,22.85
2018-06-23T01:59:45.812Z,22.88
2018-06-23T02:02:12.130Z,22.88
2018-06-23T02:04:38.479Z,22.84
2018-06-23T02:07:04.875Z,22.85
2018-06-23T02:09:31.214Z,22.81
2018-06-23T02:11:57.593Z,22.83
2018-06-23T02:14:23.904Z,22.84
2018-06-23T02:16:50.242Z,22.85
2018-06-23T02:19:16.622Z,22.83
2018-06-23T02:21:43.020Z,22.80
2018-06-23T02:24:09.353Z,22.80
2018-06-23T02:26:35.687Z,22.78
2018-06-23T02:29:01.992Z,22.78
2018-06-23T02:31:28.383Z,22.76
2018-06-23T02:33:54.760Z,22.77
2018-06-23T02:36:21.082Z,22.76
2018-06-23T02:38:47.432Z,22.75
2018-06-23T02:41:13.757Z,22.76
2018-06-23T02:43:40.132Z,22.71
2018-06-23T02:46:06.567Z,22.75
2018-06-23T02:48:32.887Z,22.70
2018-06-23T02:50:59.204Z,22.68
2018-06-23T02:53:25.568Z,22.68
2018-06-23T02:55:51.880Z,22.66
2018-06-23T02:58:18.189Z,22.71
2018-06-23T03:00:44.548Z,22.66
2018-06-23T03:03:10.859Z,22.65
2018-06-23T03:05:37.180Z,22.66
2018-06-23T03:08:03.496Z,22.63
2018-06-23T03:10:29.880Z,22.64
2018-06-23T03:12:56.196Z,22.64
2018-06-23T03:15:22.552Z,22.62
2018-06-23T03:17:48.861Z,22.61
2018-06-23T03:20:15.167Z,22.57
2018-06-23T03:22:41.500Z,22.57
2018-06-23T03:25:07.816Z,22.57
2018-06-23T03:27:34.132Z,22.57
2018-06-23T03:30:00.447Z,22.58
2018-06-23T03:32:26.765Z,22.55
2018-06-23T03:34:53.096Z,22.51
2018-06-23T03:37:19.459Z,22.54
2018-06-23T03:39:45.780Z,22.52
2018-06-23T03:42:12.091Z,22.52
2018-06-23T03:44:38.403Z,22.49
2018-06-23T03:47:04.747Z,22.48
2018-06-23T03:49:31.077Z,22.48
2018-06-23T03:51:57.400Z,22.50
2018-06-23T03:54:23.737Z,22.43
2018-06-23T03:56:50.070Z,22.46
2018-06-23T03:59:16.468Z,22.46
2018-06-23T04:01:42.780Z,22.44
2018-06-23T04:04:09.119Z,22.43
2018-06-23T04:06:35.445Z,22.43
2018-06-23T04:09:01.766Z,22.42
2018-06-23T04:11:28.096Z,22.38
2018-06-23T04:13:54.445Z,22.41
2018-06-23T04:16:20.758Z,22.39
2018-06-23T04:18:47.063Z,22.36
2018-06-23T04:21:13.371Z,22.39
2018-06-23T04:23:39.700Z,22.35
2018-06-23T04:26:06.011Z,22.35
2018-06-23T04:28:32.350Z,22.36
2018-06-23T04:30:58.663Z,22.35
2018-06-23T04:33:24.990Z,22.34
2018-06-23T04:35:51.315Z,22.33
2018-06-23T04:38:17.636Z,22.33
2018-06-23T04:40:43.959Z,22.32
2018-06-23T04:43:10.272Z,22.34
2018-06-23T04:45:36.600Z,22.27
2018-06-23T04:48:02.951Z,22.31
2018-06-23T04:50:29.279Z,22.26
2018-06-23T04:52:55.614Z,22.28
2018-06-23T04:55:21.968Z,22.29
2018-06-23T04:57:48.296Z,22.26
2018-06-23T05:00:14.610Z,22.25
2018-06-23T05:02:40.933Z,22.27
2018-06-23T05:05:07.280Z,22.24
2018-06-23T05:07:33.709Z,22.21
2018-06-23T05:10:00.040Z,22.24
2018-06-23T05:12:26.373Z,22.26
2018-06-23T05:14:52.709Z,22.22
2018-06-23T05:17:19.046Z,22.21
2018-06-23T05:19:45.416Z,22.19
2018-06-23T05:22:11.754Z,22.20
2018-06-23T05:24:38.069Z,22.18
2018-06-23T05:27:04.431Z,22.20
2018-06-23T05:29:30.761Z,22.17
2018-06-23T05:31:57.088Z,22.16
2018-06-23T05:34:23.463Z,22.16
2018-06-23T05:36:49.793Z,22.18
2018-06-23T05:39:16.130Z,22.14
2018-06-23T05:41:42.437Z,22.16
2018-06-23T05:44:08.750Z,22.16
2018-06-23T05:49:07.499Z,22.12
2018-06-23T05:51:33.831Z,22.12
2018-06-23T05:54:00.151Z,22.09
2018-06-23T05:56:26.495Z,22.11
2018-06-23T05:58:52.815Z,22.07
2018-06-23T06:01:19.128Z,22.10
2018-06-23T06:03:45.451Z,22.10
2018-06-23T06:06:11.783Z,22.12
2018-06-23T06:08:38.107Z,22.09
2018-06-23T06:11:04.429Z,22.08
2018-06-23T06:13:30.751Z,22.05
2018-06-23T06:15:57.083Z,22.07
2018-06-23T06:18:23.391Z,22.05
2018-06-23T06:20:49.714Z,22.09
2018-06-23T06:23:16.031Z,22.06
2018-06-23T06:25:42.348Z,22.03
2018-06-23T06:28:08.665Z,22.04
2018-06-23T06:30:35.000Z,22.06
2018-06-23T06:33:01.341Z,22.06
2018-06-23T06:35:27.651Z,22.05
2018-06-23T06:37:54.003Z,22.03
2018-06-23T06:40:20.311Z,22.03
2018-06-23T06:42:46.633Z,22.01
2018-06-23T06:45:14.516Z,22.02
2018-06-23T06:47:40.847Z,22.04
2018-06-23T06:50:07.187Z,22.05
2018-06-23T06:52:33.514Z,22.02
2018-06-23T06:54:59.836Z,22.02
2018-06-23T06:57:26.151Z,22.01
2018-06-23T06:59:52.465Z,22.01
2018-06-23T07:02:18.783Z,22.01
2018-06-23T07:04:45.121Z,22.01
2018-06-23T07:07:11.431Z,22.02
2018-06-23T07:09:37.798Z,22.02
2018-06-23T07:12:04.117Z,22.03
2018-06-23T07:14:30.424Z,22.02
2018-06-23T07:16:56.743Z,22.01
2018-06-23T07:19:23.052Z,22.01
2018-06-23T07:21:49.396Z,21.98
2018-06-23T07:24:15.782Z,22.01
2018-06-23T07:26:42.094Z,21.99
2018-06-23T07:29:08.410Z,22.01
2018-06-23T07:31:34.771Z,22.02
2018-06-23T07:34:01.127Z,22.04
2018-06-23T07:36:27.455Z,22.04
2018-06-23T07:38:53.828Z,22.05
2018-06-23T07:41:20.138Z,22.05
2018-06-23T07:43:46.495Z,22.05
2018-06-23T07:46:12.860Z,22.04
2018-06-23T07:48:39.176Z,22.09
2018-06-23T07:51:05.500Z,22.11
2018-06-23T07:53:31.898Z,22.06
2018-06-23T07:55:58.259Z,22.08
2018-06-23T07:58:24.572Z,22.08
2018-06-23T08:00:50.923Z,22.08
2018-06-23T08:03:17.309Z,22.09
2018-06-23T08:05:43.623Z,22.13
2018-06-23T08:08:09.980Z,22.14
2018-06-23T08:10:36.295Z,22.14
2018-06-23T08:13:02.645Z,22.20
2018-06-23T08:15:29.015Z,22.20
2018-06-23T08:17:55.337Z,22.20
2018-06-23T08:20:21.727Z,22.18
2018-06-23T08:22:48.088Z,22.22
2018-06-23T08:25:14.417Z,22.24
2018-06-23T08:27:40.724Z,22.28
2018-06-23T08:30:07.113Z,22.26
2018-06-23T08:32:33.462Z,22.31
2018-06-23T08:34:59.771Z,22.27
2018-06-23T08:37:26.108Z,22.29
2018-06-23T08:39:52.424Z,22.32
2018-06-23T08:42:18.769Z,22.34
2018-06-23T08:44:45.115Z,22.39
2018-06-23T08:47:11.432Z,22.38
2018-06-23T08:49:37.780Z,22.38
2018-06-23T08:52:04.111Z,22.42
2018-06-23T08:54:30.492Z,22.44
2018-06-23T08:56:56.818Z,22.46
2018-06-23T08:59:23.144Z,22.47
2018-06-23T09:01:49.612Z,22.50
2018-06-23T09:04:15.893Z,22.55
2018-06-23T09:06:42.219Z,22.55
2018-06-23T09:09:08.601Z,22.61
2018-06-23T09:11:34.981Z,22.61
2018-06-23T09:14:01.295Z,22.65
2018-06-23T09:16:27.646Z,22.63
2018-06-23T09:18:53.960Z,22.64
2018-06-23T09:21:20.317Z,22.63
2018-06-23T09:23:46.631Z,22.62
2018-06-23T09:26:12.944Z,22.58
2018-06-23T09:28:39.292Z,22.62
2018-06-23T09:31:05.691Z,22.62
2018-06-23T09:33:32.067Z,22.64
2018-06-23T09:35:58.379Z,22.68
2018-06-23T09:38:24.747Z,22.70
2018-06-23T09:40:51.067Z,22.70
2018-06-23T09:43:17.385Z,22.70
2018-06-23T09:45:43.750Z,22.72
2018-06-23T09:48:10.084Z,22.72
2018-06-23T09:50:36.452Z,22.72
2018-06-23T09:53:02.791Z,22.73
2018-06-23T09:55:29.116Z,22.76
2018-06-23T09:57:55.487Z,22.77
2018-06-23T10:00:21.805Z,22.78
2018-06-23T10:02:48.167Z,22.79
2018-06-23T10:05:14.516Z,22.78
2018-06-23T10:07:40.872Z,22.82
2018-06-23T10:10:07.227Z,22.81
2018-06-23T10:12:33.571Z,22.83
2018-06-23T10:14:59.892Z,22.84
2018-06-23T10:17:26.221Z,22.83
2018-06-23T10:19:52.537Z,22.84
2018-06-23T10:22:18.914Z,22.85
2018-06-23T10:24:45.224Z,22.86
2018-06-23T10:27:11.580Z,22.87
2018-06-23T10:29:37.904Z,22.86
2018-06-23T10:32:04.272Z,22.92
2018-06-23T10:34:30.586Z,22.88
2018-06-23T10:36:56.932Z,22.91
2018-06-23T10:39:23.290Z,22.92
2018-06-23T10:41:49.649Z,22.93
2018-06-23T10:44:16.003Z,22.95
2018-06-23T10:46:42.357Z,22.94
2018-06-23T10:49:08.664Z,22.94
2018-06-23T10:51:35.020Z,22.95
2018-06-23T10:54:01.391Z,22.95
2018-06-23T10:56:27.751Z,22.97
2018-06-23T10:58:54.077Z,22.97
2018-06-23T11:01:20.395Z,22.98
2018-06-23T11:03:46.758Z,23.00
2018-06-23T11:06:13.116Z,23.01
2018-06-23T11:08:39.423Z,23.01
2018-06-23T11:11:05.775Z,23.03
2018-06-23T11:13:33.112Z,23.06
2018-06-23T11:15:59.475Z,23.05
2018-06-23T11:18:25.841Z,23.07
2018-06-23T11:20:52.147Z,23.07
2018-06-23T11:23:18.492Z,23.08
2018-06-23T11:25:44.804Z,23.09
2018-06-23T11:28:11.163Z,23.10
2018-06-23T11:30:37.489Z,23.13
2018-06-23T11:33:03.800Z,23.13
2018-06-23T11:35:30.131Z,23.12
2018-06-23T11:37:56.458Z,23.13
2018-06-23T11:40:22.819Z,23.12
2018-06-23T11:42:49.141Z,23.15
2018-06-23T11:45:15.525Z,23.16
2018-06-23T11:47:41.843Z,23.16
2018-06-23T11:50:08.208Z,23.15
2018-06-23T11:52:34.635Z,23.16
2018-06-23T11:55:00.947Z,23.18
2018-06-23T11:57:27.345Z,23.18
2018-06-23T11:59:53.685Z,23.17
2018-06-23T12:02:20.055Z,23.16
2018-06-23T12:04:46.375Z,23.18
2018-06-23T12:07:12.698Z,23.21
2018-06-23T12:09:39.068Z,23.21
2018-06-23T12:12:05.423Z,23.23
2018-06-23T12:14:31.803Z,23.27
2018-06-23T12:16:58.127Z,23.26
2018-06-23T12:19:24.443Z,23.26
2018-06-23T12:21:50.775Z,23.26
2018-06-23T12:24:17.155Z,23.26
2018-06-23T12:26:43.493Z,23.25
2018-06-23T12:29:09.806Z,23.26
2018-06-23T12:31:36.116Z,23.30
2018-06-23T12:34:02.480Z,23.31
2018-06-23T12:36:28.837Z,23.34
2018-06-23T12:38:55.173Z,23.29
2018-06-23T12:41:21.565Z,23.32
2018-06-23T12:43:47.931Z,23.32
2018-06-23T12:46:14.317Z,23.32
2018-06-23T12:48:40.644Z,23.35
2018-06-23T12:51:06.961Z,23.37
2018-06-23T12:53:33.315Z,23.36
2018-06-23T12:55:59.659Z,23.36
2018-06-23T12:58:25.968Z,23.36
2018-06-23T13:00:52.284Z,23.37
2018-06-23T13:03:18.641Z,23.35
2018-06-23T13:05:44.952Z,23.28
2018-06-23T13:08:11.315Z,23.31
2018-06-23T13:10:37.640Z,23.32
2018-06-23T13:13:04.013Z,23.36
2018-06-23T13:15:30.327Z,23.36
2018-06-23T13:17:56.683Z,23.38
2018-06-23T13:20:23.035Z,23.40
2018-06-23T13:22:49.350Z,23.42
2018-06-23T13:25:15.715Z,23.42
2018-06-23T13:27:42.031Z,23.35
2018-06-23T13:30:08.343Z,23.39
2018-06-23T13:32:34.656Z,23.39
2018-06-23T13:35:00.978Z,23.42
2018-06-23T13:37:27.330Z,23.43
2018-06-23T13:39:53.638Z,23.46
2018-06-23T13:42:19.948Z,23.43
2018-06-23T13:44:46.274Z,23.50
2018-06-23T13:47:12.769Z,23.46
2018-06-23T13:49:38.964Z,23.45
2018-06-23T13:52:05.320Z,23.46
2018-06-23T13:54:31.704Z,23.51
2018-06-23T13:56:58.051Z,23.50
2018-06-23T13:59:24.368Z,23.51
2018-06-23T14:01:50.685Z,23.50
2018-06-23T14:04:17.040Z,23.50
2018-06-23T14:06:43.381Z,23.51
2018-06-23T14:09:09.699Z,23.55
2018-06-23T14:11:36.012Z,23.54
2018-06-23T14:14:02.351Z,23.54
2018-06-23T14:16:28.717Z,23.56
2018-06-23T14:18:55.032Z,23.58
2018-06-23T14:21:21.381Z,23.64
2018-06-23T14:23:47.691Z,23.64
2018-06-23T14:26:14.042Z,23.62
2018-06-23T14:28:40.457Z,23.62
2018-06-23T14:31:06.778Z,23.58
2018-06-23T14:33:33.163Z,23.62
2018-06-23T14:35:59.483Z,23.61
2018-06-23T14:38:25.847Z,23.65
2018-06-23T14:40:52.309Z,23.66
2018-06-23T14:43:18.633Z,23.66
2018-06-23T14:45:44.963Z,23.66
2018-06-23T14:48:11.307Z,23.67
2018-06-23T14:50:37.659Z,23.67
2018-06-23T14:53:04.023Z,23.70
2018-06-23T14:55:30.380Z,23.69
2018-06-23T14:57:56.683Z,23.67
2018-06-23T15:00:23.032Z,23.67
2018-06-23T15:02:49.360Z,23.68
2018-06-23T15:05:15.705Z,23.68
2018-06-23T15:07:42.019Z,23.69
2018-06-23T15:10:08.365Z,23.69
2018-06-23T15:12:34.758Z,23.69
2018-06-23T15:15:01.113Z,23.70
2018-06-23T15:17:27.438Z,23.73
2018-06-23T15:19:53.770Z,23.71
2018-06-23T15:22:20.084Z,23.73
2018-06-23T15:24:46.438Z,23.71
2018-06-23T15:27:12.798Z,23.70
2018-06-23T15:29:39.144Z,23.69
2018-06-23T15:32:05.459Z,23.70
2018-06-23T15:34:31.799Z,23.70
2018-06-23T15:36:58.122Z,23.73
2018-06-23T15:39:24.501Z,23.71
2018-06-23T15:41:50.799Z,23.73
2018-06-23T15:44:17.180Z,23.70
2018-06-23T15:46:43.498Z,23.70
2018-06-23T15:49:09.808Z,23.72
2018-06-23T15:51:36.132Z,23.74
2018-06-23T15:54:02.508Z,23.72
2018-06-23T15:56:28.820Z,23.69
2018-06-23T15:58:55.219Z,23.68
2018-06-23T16:01:21.529Z,23.71
2018-06-23T16:03:47.880Z,23.72
2018-06-23T16:06:14.191Z,23.74
2018-06-23T16:08:40.508Z,23.70
2018-06-23T16:11:06.838Z,23.70
2018-06-23T16:13:33.155Z,23.69
2018-06-23T16:15:59.468Z,23.70
2018-06-23T16:18:25.820Z,23.68
2018-06-23T16:20:52.140Z,23.69
2018-06-23T16:23:18.493Z,23.66
2018-06-23T16:25:44.820Z,23.69
2018-06-23T16:28:11.151Z,23.68
2018-06-23T16:30:37.492Z,23.67
2018-06-23T16:33:03.852Z,23.64
2018-06-23T16:35:30.312Z,23.65
2018-06-23T16:37:56.539Z,23.64
2018-06-23T16:40:22.888Z,23.66
2018-06-23T16:42:49.208Z,23.59
2018-06-23T16:45:15.576Z,23.62
2018-06-23T16:47:41.892Z,23.62
2018-06-23T16:50:08.240Z,23.62
2018-06-23T16:52:34.643Z,23.62
2018-06-23T16:55:00.936Z,23.58
2018-06-23T16:57:27.280Z,23.61
2018-06-23T16:59:53.588Z,23.59
2018-06-23T17:02:19.897Z,23.58
2018-06-23T17:04:46.250Z,23.58
2018-06-23T17:07:12.563Z,23.60
2018-06-23T17:09:38.909Z,23.50
2018-06-23T17:12:05.240Z,23.59
2018-06-23T17:14:31.547Z,23.52
2018-06-23T17:16:57.852Z,23.52
2018-06-23T17:19:24.168Z,23.53
2018-06-23T17:21:50.520Z,23.50
2018-06-23T17:24:16.831Z,23.49
2018-06-23T17:26:43.144Z,23.45
2018-06-23T17:29:09.463Z,23.47
2018-06-23T17:31:35.819Z,23.46
2018-06-23T17:34:02.178Z,23.45
2018-06-23T17:36:28.508Z,23.45
2018-06-23T17:38:54.861Z,23.43
2018-06-23T17:41:21.180Z,23.42
2018-06-23T17:43:47.487Z,23.39
2018-06-23T17:46:13.816Z,23.39
2018-06-23T17:48:40.160Z,23.40
2018-06-23T17:51:06.466Z,23.37
2018-06-23T17:53:32.771Z,23.38
2018-06-23T17:55:59.119Z,23.34
2018-06-23T17:58:25.460Z,23.34
2018-06-23T18:00:51.763Z,23.34
2018-06-23T18:03:18.120Z,23.31
2018-06-23T18:05:44.451Z,23.28
2018-06-23T18:08:10.802Z,23.29
2018-06-23T18:10:37.185Z,23.25
2018-06-23T18:13:03.640Z,23.23
2018-06-23T18:15:29.995Z,23.24
2018-06-23T18:17:56.368Z,23.25
2018-06-23T18:20:22.738Z,23.21
2018-06-23T18:22:49.054Z,23.21
2018-06-23T18:25:15.378Z,23.20
2018-06-23T18:27:41.708Z,23.16
2018-06-23T18:30:08.044Z,23.16
2018-06-23T18:32:34.355Z,23.15
2018-06-23T18:35:00.667Z,23.13
2018-06-23T18:37:26.980Z,23.12
2018-06-23T18:39:53.292Z,23.11
2018-06-23T18:42:19.628Z,23.10
2018-06-23T18:44:45.959Z,23.06
2018-06-23T18:47:12.268Z,23.06
2018-06-23T18:49:38.580Z,23.05
2018-06-23T18:52:04.907Z,23.02
2018-06-23T18:54:31.274Z,23.03
2018-06-23T18:56:57.619Z,23.00
2018-06-23T18:59:23.928Z,22.99
2018-06-23T19:01:50.250Z,23.01
2018-06-23T19:04:16.636Z,23.00
2018-06-23T19:06:42.963Z,22.99
2018-06-23T19:09:09.409Z,23.00
2018-06-23T19:11:35.646Z,23.00
2018-06-23T19:14:02.025Z,22.98
2018-06-23T19:16:28.331Z,22.99
2018-06-23T19:18:54.641Z,22.98
2018-06-23T19:21:20.983Z,22.97
2018-06-23T19:23:47.313Z,22.93
2018-06-23T19:26:13.632Z,22.92
2018-06-23T19:28:39.943Z,22.91
2018-06-23T19:31:06.304Z,22.92
2018-06-23T19:33:32.627Z,22.85
2018-06-23T19:35:58.933Z,22.91
2018-06-23T19:38:25.307Z,22.85
2018-06-23T19:40:51.659Z,22.87
2018-06-23T19:43:18.031Z,22.84
2018-06-23T19:45:44.348Z,22.86
2018-06-23T19:48:10.710Z,22.79
2018-06-23T19:50:37.023Z,22.78
2018-06-23T19:53:03.336Z,22.83
2018-06-23T19:55:29.670Z,22.79
2018-06-23T19:57:55.983Z,22.72
2018-06-23T20:00:22.295Z,22.77
2018-06-23T20:02:48.607Z,22.72
2018-06-23T20:05:14.932Z,22.75
2018-06-23T20:07:41.248Z,22.75
2018-06-23T20:10:07.572Z,22.71
2018-06-23T20:12:33.896Z,22.69
2018-06-23T20:15:00.229Z,22.68
2018-06-23T20:17:26.544Z,22.68
2018-06-23T20:19:52.857Z,22.70
2018-06-23T20:22:19.268Z,22.66
2018-06-23T20:24:45.571Z,22.64
2018-06-23T20:27:11.883Z,22.66
2018-06-23T20:29:38.232Z,22.62
2018-06-23T20:32:04.549Z,22.64
2018-06-23T20:34:30.863Z,22.62
2018-06-23T20:36:57.176Z,22.61
2018-06-23T20:39:23.528Z,22.60
2018-06-23T20:41:49.904Z,22.57
2018-06-23T20:44:16.219Z,22.54
2018-06-23T20:46:42.537Z,22.54
2018-06-23T20:49:08.921Z,22.54
2018-06-23T20:51:35.235Z,22.54
2018-06-23T20:54:01.551Z,22.50
2018-06-23T20:56:27.868Z,22.51
2018-06-23T20:58:54.183Z,22.49
2018-06-23T21:01:20.574Z,22.50
2018-06-23T21:03:46.836Z,22.49
2018-06-23T21:06:13.159Z,22.44
2018-06-23T21:08:39.509Z,22.47
2018-06-23T21:11:05.824Z,22.44
2018-06-23T21:13:32.167Z,22.41
2018-06-23T21:15:58.524Z,22.43
2018-06-23T21:18:24.843Z,22.44
2018-06-23T21:20:51.204Z,22.40
2018-06-23T21:23:17.550Z,22.40
2018-06-23T21:25:43.872Z,22.37
2018-06-23T21:28:10.340Z,22.40
2018-06-23T21:30:36.660Z,22.40
2018-06-23T21:33:02.979Z,22.39
2018-06-23T21:35:29.332Z,22.38
2018-06-23T21:37:55.680Z,22.37
2018-06-23T21:40:22.052Z,22.33
2018-06-23T21:42:48.375Z,22.33
2018-06-23T21:45:14.691Z,22.34
2018-06-23T21:47:41.041Z,22.34
2018-06-23T21:50:07.355Z,22.27
2018-06-23T21:52:33.672Z,22.29
2018-06-23T21:54:59.988Z,22.25
2018-06-23T21:57:26.330Z,22.24
2018-06-23T21:59:52.644Z,22.27
2018-06-23T22:02:18.966Z,22.25
2018-06-23T22:04:45.311Z,22.24
2018-06-23T22:07:11.636Z,22.25
2018-06-23T22:09:37.947Z,22.24
2018-06-23T22:12:04.335Z,22.27
2018-06-23T22:14:30.651Z,22.23
2018-06-23T22:16:56.968Z,22.21
2018-06-23T22:19:23.305Z,22.23
2018-06-23T22:21:49.607Z,22.22
2018-06-23T22:24:15.920Z,22.23
2018-06-23T22:26:42.235Z,22.17
2018-06-23T22:29:08.551Z,22.14
2018-06-23T22:31:34.861Z,22.14
2018-06-23T22:34:01.236Z,22.14
2018-06-23T22:36:27.551Z,22.17
2018-06-23T22:38:53.906Z,22.17
2018-06-23T22:41:20.255Z,22.13
2018-06-23T22:43:46.591Z,22.09
2018-06-23T22:46:12.909Z,22.08
2018-06-23T22:48:39.230Z,22.09
2018-06-23T22:51:05.539Z,22.13
2018-06-23T22:53:31.878Z,22.07
2018-06-23T22:55:58.188Z,22.08
2018-06-23T22:58:24.496Z,22.06
2018-06-23T23:00:50.803Z,22.07
2018-06-23T23:03:17.181Z,22.07
2018-06-23T23:05:43.513Z,22.07
2018-06-23T23:08:09.865Z,22.04
2018-06-23T23:10:36.233Z,22.03
2018-06-23T23:13:02.598Z,22.01
2018-06-23T23:15:28.922Z,22.02
2018-06-23T23:17:55.290Z,21.99
2018-06-23T23:20:21.604Z,21.99
2018-06-23T23:22:47.911Z,21.99
2018-06-23T23:25:15.271Z,21.94
2018-06-23T23:27:41.579Z,21.90
2018-06-23T23:30:07.970Z,21.94
2018-06-23T23:32:34.281Z,21.96
2018-06-23T23:35:00.632Z,21.94
2018-06-23T23:37:26.940Z,21.90
2018-06-23T23:39:53.291Z,21.92
2018-06-23T23:42:19.604Z,21.88
2018-06-23T23:44:45.915Z,21.88
2018-06-23T23:47:12.248Z,21.84
2018-06-23T23:49:38.607Z,21.81
2018-06-23T23:52:04.928Z,21.84
2018-06-23T23:54:31.235Z,21.85
2018-06-23T23:56:57.558Z,21.87
2018-06-23T23:59:23.899Z,21.79
